Time;durP1;ratioP1;P1;durP2;ratioP2;P2;SDS_P1;SDS_P2;PMS_P1;PMS_P2;Temp;Humidity;BMP_temperature;BMP_pressure;BME280_temperature;BME280_humidity;BME280_pressure;Samples;Min_cycle;Max_cycle;Signal;HPM_P1;HPM_P2
2023/03/07 14:16:20;;;;;;;;;;;21.00;57.40;;;;;;4769076;54;20054;-32
2023/03/07 14:22:42;;;;;;;;;;;21.00;56.60;;;;;;4803059;58;20131;-35
2023/03/07 14:27:59;;;;;;;;;;;21.00;56.40;;;;;;4845892;54;20083;-33
2023/03/07 14:33:00;;;;;;;;;;;20.90;56.20;;;;;;4826953;54;20318;-35
2023/03/07 14:38:00;;;;;;;;;;;20.80;56.20;;;;;;4806738;58;20079;-36
2023/03/07 14:43:12;;;;;;;;;;;20.80;56.20;;;;;;4826783;54;20067;-35
2023/03/07 14:48:31;;;;;;;;;;;20.80;56.10;;;;;;4847000;54;20071;-37
2023/03/07 14:53:33;;;;;;;;;;;20.80;56.00;;;;;;4943545;54;20127;-34
2023/03/07 14:58:36;;;;;;;;;;;20.70;55.90;;;;;;4848530;54;20309;-34
2023/03/07 15:03:43;;;;;;;;;;;20.70;55.80;;;;;;4796037;58;20068;-34
2023/03/07 15:08:45;;;;;;;;;;;20.70;55.80;;;;;;5040494;55;20065;-35
2023/03/07 15:13:47;;;;;;;;;;;20.70;55.70;;;;;;4753516;58;20342;-35
2023/03/07 15:18:50;;;;;;;;;;;20.70;55.60;;;;;;4861338;55;20060;-35
2023/03/07 15:23:52;;;;;;;;;;;20.60;55.50;;;;;;4801085;55;20063;-36
2023/03/07 15:28:57;;;;;;;;;;;20.60;55.20;;;;;;4971238;55;20379;-34
2023/03/07 15:34:11;;;;;;;;;;;20.60;55.40;;;;;;4874380;55;20287;-34
2023/03/07 15:39:21;;;;;;;;;;;20.60;55.30;;;;;;4751842;56;20338;-34
2023/03/07 15:44:21;;;;;;;;;;;20.50;55.20;;;;;;4832864;55;20076;-36
2023/03/07 15:49:29;;;;;;;;;;;20.60;55.20;;;;;;4751740;58;20064;-33
2023/03/07 15:54:33;;;;;;;;;;;20.50;55.10;;;;;;4751699;58;20482;-36
2023/03/07 15:59:39;;;;;;;;;;;20.50;55.10;;;;;;4793807;55;20399;-34
2023/03/07 16:04:41;;;;;;;;;;;20.50;55.00;;;;;;4753857;55;20052;-35
2023/03/07 16:09:42;;;;;;;;;;;20.50;54.90;;;;;;4793609;55;20387;-34
2023/03/07 16:14:43;;;;;;;;;;;20.50;54.80;;;;;;4909771;55;20057;-35
2023/03/07 16:19:44;;;;;;;;;;;20.50;54.80;;;;;;4777312;55;20113;-34
2023/03/07 16:24:44;;;;;;;;;;;20.50;54.60;;;;;;4873030;55;20056;-34
2023/03/07 16:29:45;;;;;;;;;;;20.50;54.50;;;;;;4751952;58;20077;-32
2023/03/07 16:34:47;;;;;;;;;;;20.50;54.50;;;;;;4904159;55;20048;-35
2023/03/07 16:39:48;;;;;;;;;;;20.50;54.40;;;;;;5063284;55;20389;-33
2023/03/07 16:44:50;;;;;;;;;;;20.40;54.30;;;;;;4834639;55;20073;-33
2023/03/07 16:49:50;;;;;;;;;;;20.40;54.20;;;;;;4855737;55;20072;-34
2023/03/07 16:54:51;;;;;;;;;;;20.40;54.10;;;;;;4810512;55;20108;-35
2023/03/07 16:59:51;;;;;;;;;;;20.40;54.10;;;;;;4751484;58;20064;-33
2023/03/07 17:04:52;;;;;;;;;;;20.40;54.50;;;;;;4758985;55;20302;-34
2023/03/07 17:09:55;;;;;;;;;;;20.40;54.00;;;;;;4795313;55;20350;-35
2023/03/07 17:14:58;;;;;;;;;;;20.40;54.00;;;;;;4872345;55;20291;-33
2023/03/07 17:19:59;;;;;;;;;;;20.40;53.90;;;;;;4787563;55;20303;-33
2023/03/07 17:25:00;;;;;;;;;;;20.40;53.80;;;;;;4827201;55;20112;-33
2023/03/07 17:30:00;;;;;;;;;;;20.40;53.70;;;;;;4948040;55;20318;-35
2023/03/07 17:35:01;;;;;;;;;;;20.40;53.70;;;;;;4772986;55;20092;-35
2023/03/07 17:40:08;;;;;;;;;;;20.40;53.80;;;;;;4851286;55;20135;-34
2023/03/07 17:45:11;;;;;;;;;;;20.40;53.60;;;;;;5075960;55;20315;-36
2023/03/07 17:50:11;;;;;;;;;;;20.40;53.60;;;;;;4879182;55;20302;-35
2023/03/07 17:55:13;;;;;;;;;;;20.40;53.50;;;;;;4843278;55;20112;-34
2023/03/07 18:00:14;;;;;;;;;;;20.30;53.40;;;;;;4794250;55;20351;-34
2023/03/07 18:05:15;;;;;;;;;;;20.40;53.40;;;;;;4872595;55;20077;-35
2023/03/07 18:10:16;;;;;;;;;;;20.40;53.30;;;;;;4751727;58;20072;-33
2023/03/07 18:15:20;;;;;;;;;;;20.40;53.30;;;;;;4820509;55;20127;-35
2023/03/07 18:20:21;;;;;;;;;;;20.40;53.20;;;;;;4751739;58;20401;-34
2023/03/07 18:25:22;;;;;;;;;;;20.40;53.30;;;;;;4750586;58;20124;-34
2023/03/07 18:30:22;;;;;;;;;;;20.30;53.20;;;;;;4751715;56;20294;-34
2023/03/07 18:35:23;;;;;;;;;;;20.30;53.20;;;;;;4751319;58;20133;-34
2023/03/07 18:40:24;;;;;;;;;;;20.40;53.30;;;;;;4751755;58;20298;-34
2023/03/07 18:45:25;;;;;;;;;;;20.30;53.10;;;;;;4763930;55;20103;-34
2023/03/07 18:50:25;;;;;;;;;;;20.30;53.00;;;;;;4751381;58;20113;-35
2023/03/07 18:55:31;;;;;;;;;;;20.30;53.10;;;;;;4846992;55;20069;-35
2023/03/07 19:00:31;;;;;;;;;;;20.30;53.00;;;;;;4781865;55;20346;-35
2023/03/07 19:05:33;;;;;;;;;;;20.40;53.10;;;;;;4750667;58;20072;-35
2023/03/07 19:10:35;;;;;;;;;;;20.30;53.00;;;;;;4800437;55;20373;-33
2023/03/07 19:15:35;;;;;;;;;;;20.30;53.00;;;;;;4938774;55;20168;-31
2023/03/07 19:20:39;;;;;;;;;;;20.30;52.90;;;;;;4786527;55;20127;-34
2023/03/07 19:25:40;;;;;;;;;;;20.30;52.90;;;;;;4860013;55;20076;-35
2023/03/07 19:30:40;;;;;;;;;;;20.30;52.90;;;;;;4857958;55;20076;-35
2023/03/07 19:35:41;;;;;;;;;;;20.30;52.90;;;;;;4810842;55;20076;-35
2023/03/07 19:40:46;;;;;;;;;;;20.30;53.00;;;;;;4815427;55;20068;-34
2023/03/07 19:45:47;;;;;;;;;;;20.30;52.80;;;;;;4750739;56;20128;-34
2023/03/07 19:50:48;;;;;;;;;;;20.30;52.80;;;;;;4752024;58;20346;-34
2023/03/07 19:55:49;;;;;;;;;;;20.30;52.80;;;;;;4924586;55;20117;-35
2023/03/07 20:00:49;;;;;;;;;;;20.30;52.80;;;;;;4768668;55;20096;-36
2023/03/07 20:05:50;;;;;;;;;;;20.30;52.80;;;;;;4830646;55;20077;-34
2023/03/07 20:10:51;;;;;;;;;;;20.30;52.70;;;;;;4827797;55;20116;-35
2023/03/07 20:15:51;;;;;;;;;;;20.30;52.70;;;;;;4751546;58;20064;-34
2023/03/07 20:20:52;;;;;;;;;;;20.30;52.70;;;;;;4823768;55;20319;-34
2023/03/07 20:25:52;;;;;;;;;;;20.30;52.60;;;;;;4864819;55;20064;-34
2023/03/07 20:30:53;;;;;;;;;;;20.30;52.60;;;;;;4900784;55;20060;-35
2023/03/07 20:36:05;;;;;;;;;;;20.30;52.70;;;;;;4752112;58;20076;-35
2023/03/07 20:41:07;;;;;;;;;;;20.30;52.60;;;;;;4752051;58;20068;-34
2023/03/07 20:46:09;;;;;;;;;;;20.30;52.60;;;;;;4820995;55;20287;-35
2023/03/07 20:51:17;;;;;;;;;;;20.30;52.60;;;;;;5094916;55;20200;-35
2023/03/07 20:56:18;;;;;;;;;;;20.30;52.60;;;;;;4788267;55;20358;-35
2023/03/07 21:01:19;;;;;;;;;;;20.30;52.60;;;;;;4980857;55;20105;-34
2023/03/07 21:06:20;;;;;;;;;;;20.20;52.50;;;;;;4751341;58;20362;-34
2023/03/07 21:11:21;;;;;;;;;;;20.20;52.50;;;;;;5236729;55;20092;-33
2023/03/07 21:16:22;;;;;;;;;;;20.20;52.50;;;;;;4976278;55;20343;-33
2023/03/07 21:21:23;;;;;;;;;;;20.20;52.50;;;;;;4751669;58;20133;-33
2023/03/07 21:26:25;;;;;;;;;;;20.30;52.60;;;;;;4858461;55;20303;-34
2023/03/07 21:31:27;;;;;;;;;;;20.30;52.60;;;;;;4751803;58;20076;-34
2023/03/07 21:36:30;;;;;;;;;;;20.30;52.50;;;;;;4771245;55;20067;-35
2023/03/07 21:41:30;;;;;;;;;;;20.30;52.50;;;;;;4912966;55;20382;-36
2023/03/07 21:46:31;;;;;;;;;;;20.30;52.50;;;;;;4866677;55;20065;-35
2023/03/07 21:51:32;;;;;;;;;;;20.20;52.00;;;;;;4776305;55;20322;-35
2023/03/07 21:56:33;;;;;;;;;;;20.20;52.40;;;;;;4844314;55;20298;-34
2023/03/07 22:01:33;;;;;;;;;;;20.30;52.50;;;;;;4751790;55;20092;-33
2023/03/07 22:06:34;;;;;;;;;;;20.20;52.40;;;;;;4768943;55;20124;-34
2023/03/07 22:11:35;;;;;;;;;;;20.20;52.40;;;;;;5237986;55;20212;-36
2023/03/07 22:16:36;;;;;;;;;;;20.20;52.40;;;;;;4872131;55;20053;-35
2023/03/07 22:21:36;;;;;;;;;;;20.20;52.40;;;;;;4751703;57;20085;-35
2023/03/07 22:26:37;;;;;;;;;;;20.30;52.40;;;;;;4751499;58;20068;-36
2023/03/07 22:31:38;;;;;;;;;;;20.20;52.50;;;;;;4751877;58;20176;-35
2023/03/07 22:36:38;;;;;;;;;;;20.20;52.40;;;;;;4751803;58;20073;-34
2023/03/07 22:41:39;;;;;;;;;;;20.20;52.40;;;;;;4926188;55;20282;-31
2023/03/07 22:46:39;;;;;;;;;;;20.20;52.40;;;;;;4752009;55;20151;-35
2023/03/07 22:51:40;;;;;;;;;;;20.20;52.40;;;;;;5027119;55;20108;-34
2023/03/07 22:56:41;;;;;;;;;;;20.20;52.40;;;;;;4752144;58;20318;-33
2023/03/07 23:01:41;;;;;;;;;;;20.20;52.90;;;;;;4782391;55;20117;-34
2023/03/07 23:06:42;;;;;;;;;;;20.20;52.40;;;;;;4942488;54;20120;-34
2023/03/07 23:11:45;;;;;;;;;;;20.20;52.30;;;;;;4752184;56;20089;-35
2023/03/07 23:16:45;;;;;;;;;;;20.20;52.30;;;;;;5036616;55;20343;-33
2023/03/07 23:21:46;;;;;;;;;;;20.20;52.30;;;;;;4857194;55;20068;-33
2023/03/07 23:26:47;;;;;;;;;;;20.20;52.30;;;;;;4795368;55;20306;-33
2023/03/07 23:31:48;;;;;;;;;;;20.20;52.30;;;;;;4763193;55;20299;-33
2023/03/07 23:36:48;;;;;;;;;;;20.20;52.30;;;;;;5113072;55;20064;-33
2023/03/07 23:41:49;;;;;;;;;;;20.20;52.20;;;;;;4757693;55;20302;-34
2023/03/07 23:46:50;;;;;;;;;;;20.20;52.20;;;;;;4766724;55;20075;-34
2023/03/07 23:51:50;;;;;;;;;;;20.20;52.30;;;;;;5238675;55;20068;-35
2023/03/07 23:56:51;;;;;;;;;;;20.20;52.20;;;;;;5029253;55;20068;-33
